sensor_id;sensor_type;location;lat;lon;timestamp;P1;durP1;ratioP1;P2;durP2;ratioP2
15814;SDS011;8008;50.024;8.172;2023-08-30T03:01:26;2.70;;;2.50;;
15814;SDS011;8008;50.024;8.172;2023-08-30T03:03:54;3.13;;;2.65;;
15814;SDS011;8008;50.024;8.172;2023-08-30T03:06:22;5.03;;;2.72;;
15814;SDS011;8008;50.024;8.172;2023-08-30T03:08:53;3.20;;;2.70;;
15814;SDS011;8008;50.024;8.172;2023-08-30T03:11:23;3.20;;;2.70;;
15814;SDS011;8008;50.024;8.172;2023-08-30T03:13:53;4.30;;;2.83;;
15814;SDS011;8008;50.024;8.172;2023-08-30T03:16:21;3.47;;;2.65;;
15814;SDS011;8008;50.024;8.172;2023-08-30T03:18:51;3.47;;;2.78;;
15814;SDS011;8008;50.024;8.172;2023-08-30T03:21:19;3.70;;;2.75;;
15814;SDS011;8008;50.024;8.172;2023-08-30T03:23:47;3.05;;;2.75;;
15814;SDS011;8008;50.024;8.172;2023-08-30T03:26:15;3.95;;;2.88;;
15814;SDS011;8008;50.024;8.172;2023-08-30T03:28:43;2.63;;;2.42;;
15814;SDS011;8008;50.024;8.172;2023-08-30T03:31:13;4.35;;;2.75;;
15814;SDS011;8008;50.024;8.172;2023-08-30T03:33:41;3.30;;;3.00;;
15814;SDS011;8008;50.024;8.172;2023-08-30T03:36:13;3.40;;;2.80;;
15814;SDS011;8008;50.024;8.172;2023-08-30T03:38:42;4.88;;;2.78;;
15814;SDS011;8008;50.024;8.172;2023-08-30T03:41:11;3.00;;;2.63;;
15814;SDS011;8008;50.024;8.172;2023-08-30T03:43:41;3.22;;;2.70;;
15814;SDS011;8008;50.024;8.172;2023-08-30T03:46:09;4.18;;;3.13;;
15814;SDS011;8008;50.024;8.172;2023-08-30T03:48:38;3.35;;;3.00;;
15814;SDS011;8008;50.024;8.172;2023-08-30T03:51:06;4.57;;;3.10;;
15814;SDS011;8008;50.024;8.172;2023-08-30T03:53:36;3.50;;;2.90;;
15814;SDS011;8008;50.024;8.172;2023-08-30T03:56:04;3.20;;;2.70;;
15814;SDS011;8008;50.024;8.172;2023-08-30T03:58:32;3.00;;;2.70;;
15814;SDS011;8008;50.024;8.172;2023-08-30T04:01:00;5.68;;;2.90;;
15814;SDS011;8008;50.024;8.172;2023-08-30T04:03:28;3.47;;;2.97;;
15814;SDS011;8008;50.024;8.172;2023-08-30T04:05:56;3.50;;;2.78;;
15814;SDS011;8008;50.024;8.172;2023-08-30T04:08:24;4.30;;;2.70;;
15814;SDS011;8008;50.024;8.172;2023-08-30T04:10:53;5.28;;;3.35;;
15814;SDS011;8008;50.024;8.172;2023-08-30T04:13:22;4.13;;;3.00;;
15814;SDS011;8008;50.024;8.172;2023-08-30T04:15:52;3.45;;;2.95;;
15814;SDS011;8008;50.024;8.172;2023-08-30T04:18:20;5.38;;;3.10;;
15814;SDS011;8008;50.024;8.172;2023-08-30T04:20:50;4.00;;;3.08;;
15814;SDS011;8008;50.024;8.172;2023-08-30T04:23:18;4.57;;;2.58;;
15814;SDS011;8008;50.024;8.172;2023-08-30T04:25:46;6.45;;;2.90;;
15814;SDS011;8008;50.024;8.172;2023-08-30T04:28:16;3.38;;;2.72;;
15814;SDS011;8008;50.024;8.172;2023-08-30T04:30:44;3.33;;;2.90;;
15814;SDS011;8008;50.024;8.172;2023-08-30T04:33:12;4.32;;;2.88;;
15814;SDS011;8008;50.024;8.172;2023-08-30T04:35:40;3.63;;;2.83;;
15814;SDS011;8008;50.024;8.172;2023-08-30T04:38:08;3.80;;;2.90;;
15814;SDS011;8008;50.024;8.172;2023-08-30T04:40:37;4.40;;;3.00;;
15814;SDS011;8008;50.024;8.172;2023-08-30T04:43:05;3.63;;;2.95;;
15814;SDS011;8008;50.024;8.172;2023-08-30T04:45:35;3.22;;;2.92;;
15814;SDS011;8008;50.024;8.172;2023-08-30T04:48:05;3.53;;;3.20;;
15814;SDS011;8008;50.024;8.172;2023-08-30T04:50:34;3.45;;;3.15;;
15814;SDS011;8008;50.024;8.172;2023-08-30T04:53:03;6.45;;;2.90;;
15814;SDS011;8008;50.024;8.172;2023-08-30T04:55:31;3.40;;;3.10;;
15814;SDS011;8008;50.024;8.172;2023-08-30T04:57:59;4.43;;;3.10;;
15814;SDS011;8008;50.024;8.172;2023-08-30T05:00:32;4.57;;;3.03;;
15814;SDS011;8008;50.024;8.172;2023-08-30T05:03:03;4.22;;;3.17;;
15814;SDS011;8008;50.024;8.172;2023-08-30T05:05:31;5.93;;;3.60;;
15814;SDS011;8008;50.024;8.172;2023-08-30T05:08:00;5.28;;;3.45;;
15814;SDS011;8008;50.024;8.172;2023-08-30T05:10:32;5.63;;;3.67;;
15814;SDS011;8008;50.024;8.172;2023-08-30T05:13:00;5.22;;;3.70;;
15814;SDS011;8008;50.024;8.172;2023-08-30T05:15:30;4.38;;;3.40;;
15814;SDS011;8008;50.024;8.172;2023-08-30T05:17:58;4.55;;;3.20;;
15814;SDS011;8008;50.024;8.172;2023-08-30T05:20:28;3.45;;;3.00;;
15814;SDS011;8008;50.024;8.172;2023-08-30T05:22:56;5.05;;;3.08;;
15814;SDS011;8008;50.024;8.172;2023-08-30T05:25:24;3.67;;;3.28;;
15814;SDS011;8008;50.024;8.172;2023-08-30T05:27:53;5.13;;;3.10;;
15814;SDS011;8008;50.024;8.172;2023-08-30T05:30:21;3.72;;;3.33;;
15814;SDS011;8008;50.024;8.172;2023-08-30T05:32:52;6.38;;;3.63;;
15814;SDS011;8008;50.024;8.172;2023-08-30T05:35:40;4.55;;;3.42;;
15814;SDS011;8008;50.024;8.172;2023-08-30T05:38:28;3.55;;;3.25;;
15814;SDS011;8008;50.024;8.172;2023-08-30T05:41:01;4.32;;;3.63;;
15814;SDS011;8008;50.024;8.172;2023-08-30T05:43:29;6.50;;;3.83;;
15814;SDS011;8008;50.024;8.172;2023-08-30T05:45:57;6.75;;;3.55;;
15814;SDS011;8008;50.024;8.172;2023-08-30T05:48:28;5.57;;;3.80;;
15814;SDS011;8008;50.024;8.172;2023-08-30T05:50:58;6.50;;;4.00;;
15814;SDS011;8008;50.024;8.172;2023-08-30T05:53:26;5.55;;;4.57;;
15814;SDS011;8008;50.024;8.172;2023-08-30T05:55:54;7.60;;;4.70;;
15814;SDS011;8008;50.024;8.172;2023-08-30T05:58:22;9.18;;;4.45;;
15814;SDS011;8008;50.024;8.172;2023-08-30T06:00:50;7.70;;;4.80;;
15814;SDS011;8008;50.024;8.172;2023-08-30T06:03:18;8.32;;;4.97;;
15814;SDS011;8008;50.024;8.172;2023-08-30T06:05:46;7.82;;;4.78;;
15814;SDS011;8008;50.024;8.172;2023-08-30T06:08:16;9.60;;;4.95;;
15814;SDS011;8008;50.024;8.172;2023-08-30T06:10:45;10.10;;;5.00;;
15814;SDS011;8008;50.024;8.172;2023-08-30T06:13:13;6.65;;;4.63;;
15814;SDS011;8008;50.024;8.172;2023-08-30T06:15:41;8.50;;;4.90;;
15814;SDS011;8008;50.024;8.172;2023-08-30T06:18:11;8.88;;;4.78;;
15814;SDS011;8008;50.024;8.172;2023-08-30T06:20:40;8.70;;;4.60;;
15814;SDS011;8008;50.024;8.172;2023-08-30T06:23:08;6.88;;;4.70;;
15814;SDS011;8008;50.024;8.172;2023-08-30T06:25:38;7.18;;;4.95;;
15814;SDS011;8008;50.024;8.172;2023-08-30T06:28:06;6.70;;;5.30;;
15814;SDS011;8008;50.024;8.172;2023-08-30T06:30:35;6.75;;;5.00;;
15814;SDS011;8008;50.024;8.172;2023-08-30T06:33:04;8.35;;;4.90;;
15814;SDS011;8008;50.024;8.172;2023-08-30T06:35:32;6.55;;;5.15;;
15814;SDS011;8008;50.024;8.172;2023-08-30T06:38:05;7.47;;;4.60;;
15814;SDS011;8008;50.024;8.172;2023-08-30T06:40:34;7.60;;;4.85;;
15814;SDS011;8008;50.024;8.172;2023-08-30T06:43:03;10.02;;;5.38;;
15814;SDS011;8008;50.024;8.172;2023-08-30T06:45:31;9.07;;;5.35;;
15814;SDS011;8008;50.024;8.172;2023-08-30T06:47:59;6.85;;;5.07;;
15814;SDS011;8008;50.024;8.172;2023-08-30T06:50:27;6.78;;;5.25;;
15814;SDS011;8008;50.024;8.172;2023-08-30T06:52:55;10.85;;;6.05;;
15814;SDS011;8008;50.024;8.172;2023-08-30T06:55:23;11.05;;;5.75;;
15814;SDS011;8008;50.024;8.172;2023-08-30T06:57:51;9.73;;;5.40;;
15814;SDS011;8008;50.024;8.172;2023-08-30T07:00:21;7.45;;;5.75;;
15814;SDS011;8008;50.024;8.172;2023-08-30T07:02:49;7.75;;;6.07;;
15814;SDS011;8008;50.024;8.172;2023-08-30T07:05:17;9.85;;;5.93;;
15814;SDS011;8008;50.024;8.172;2023-08-30T07:07:45;8.40;;;5.68;;
15814;SDS011;8008;50.024;8.172;2023-08-30T07:10:13;6.70;;;5.63;;
15814;SDS011;8008;50.024;8.172;2023-08-30T07:12:41;9.52;;;6.38;;
15814;SDS011;8008;50.024;8.172;2023-08-30T07:15:09;7.93;;;6.20;;
15814;SDS011;8008;50.024;8.172;2023-08-30T07:17:39;8.95;;;6.00;;
15814;SDS011;8008;50.024;8.172;2023-08-30T07:20:19;8.88;;;5.65;;
15814;SDS011;8008;50.024;8.172;2023-08-30T07:22:47;7.57;;;5.90;;
15814;SDS011;8008;50.024;8.172;2023-08-30T07:25:15;7.45;;;5.97;;
15814;SDS011;8008;50.024;8.172;2023-08-30T07:27:43;7.95;;;6.28;;
15814;SDS011;8008;50.024;8.172;2023-08-30T07:30:11;9.25;;;7.15;;
15814;SDS011;8008;50.024;8.172;2023-08-30T07:32:42;8.80;;;6.68;;
15814;SDS011;8008;50.024;8.172;2023-08-30T07:35:10;9.40;;;6.40;;
15814;SDS011;8008;50.024;8.172;2023-08-30T07:37:40;7.97;;;6.22;;
15814;SDS011;8008;50.024;8.172;2023-08-30T07:40:09;6.95;;;6.20;;
15814;SDS011;8008;50.024;8.172;2023-08-30T07:42:38;8.23;;;6.28;;
15814;SDS011;8008;50.024;8.172;2023-08-30T07:45:06;7.10;;;6.03;;
15814;SDS011;8008;50.024;8.172;2023-08-30T07:47:35;6.80;;;6.07;;
15814;SDS011;8008;50.024;8.172;2023-08-30T07:50:06;7.30;;;6.38;;
15814;SDS011;8008;50.024;8.172;2023-08-30T07:52:35;7.57;;;6.53;;
15814;SDS011;8008;50.024;8.172;2023-08-30T07:55:12;8.45;;;6.28;;
15814;SDS011;8008;50.024;8.172;2023-08-30T07:57:40;8.10;;;6.78;;
15814;SDS011;8008;50.024;8.172;2023-08-30T08:00:09;8.70;;;6.72;;
15814;SDS011;8008;50.024;8.172;2023-08-30T08:02:38;8.07;;;6.38;;
15814;SDS011;8008;50.024;8.172;2023-08-30T08:05:08;9.43;;;6.82;;
15814;SDS011;8008;50.024;8.172;2023-08-30T08:07:38;7.18;;;5.85;;
15814;SDS011;8008;50.024;8.172;2023-08-30T08:10:07;7.55;;;6.55;;
15814;SDS011;8008;50.024;8.172;2023-08-30T08:12:36;6.57;;;5.88;;
15814;SDS011;8008;50.024;8.172;2023-08-30T08:15:05;6.45;;;5.63;;
15814;SDS011;8008;50.024;8.172;2023-08-30T08:17:33;7.53;;;6.07;;
15814;SDS011;8008;50.024;8.172;2023-08-30T08:20:01;7.75;;;6.40;;
15814;SDS011;8008;50.024;8.172;2023-08-30T08:22:33;6.93;;;6.15;;
15814;SDS011;8008;50.024;8.172;2023-08-30T08:25:01;7.68;;;5.90;;
15814;SDS011;8008;50.024;8.172;2023-08-30T08:27:29;6.97;;;6.28;;
15814;SDS011;8008;50.024;8.172;2023-08-30T08:29:57;8.13;;;6.00;;
15814;SDS011;8008;50.024;8.172;2023-08-30T08:32:25;8.80;;;6.15;;
15814;SDS011;8008;50.024;8.172;2023-08-30T08:34:53;8.20;;;7.00;;
15814;SDS011;8008;50.024;8.172;2023-08-30T08:37:21;6.80;;;6.10;;
15814;SDS011;8008;50.024;8.172;2023-08-30T08:39:51;7.57;;;6.07;;
15814;SDS011;8008;50.024;8.172;2023-08-30T08:42:19;6.75;;;6.15;;
15814;SDS011;8008;50.024;8.172;2023-08-30T08:44:47;6.28;;;5.68;;
15814;SDS011;8008;50.024;8.172;2023-08-30T08:47:19;8.02;;;5.53;;
15814;SDS011;8008;50.024;8.172;2023-08-30T08:49:48;8.18;;;6.07;;
15814;SDS011;8008;50.024;8.172;2023-08-30T08:52:17;7.32;;;5.65;;
15814;SDS011;8008;50.024;8.172;2023-08-30T08:54:59;7.90;;;5.68;;
15814;SDS011;8008;50.024;8.172;2023-08-30T08:57:28;7.13;;;5.97;;
15814;SDS011;8008;50.024;8.172;2023-08-30T08:59:57;7.28;;;5.97;;
15814;SDS011;8008;50.024;8.172;2023-08-30T09:02:26;8.15;;;6.28;;
15814;SDS011;8008;50.024;8.172;2023-08-30T09:04:55;6.90;;;6.20;;
15814;SDS011;8008;50.024;8.172;2023-08-30T09:07:25;8.35;;;6.07;;
15814;SDS011;8008;50.024;8.172;2023-08-30T09:09:56;6.47;;;5.88;;
15814;SDS011;8008;50.024;8.172;2023-08-30T09:12:26;6.88;;;6.18;;
15814;SDS011;8008;50.024;8.172;2023-08-30T09:14:54;7.07;;;6.15;;
15814;SDS011;8008;50.024;8.172;2023-08-30T09:17:23;5.95;;;5.25;;
15814;SDS011;8008;50.024;8.172;2023-08-30T09:20:05;11.55;;;6.60;;
15814;SDS011;8008;50.024;8.172;2023-08-30T09:22:38;6.25;;;5.65;;
15814;SDS011;8008;50.024;8.172;2023-08-30T09:25:08;6.28;;;5.68;;
15814;SDS011;8008;50.024;8.172;2023-08-30T09:27:37;5.72;;;5.22;;
15814;SDS011;8008;50.024;8.172;2023-08-30T09:30:08;6.55;;;5.00;;
15814;SDS011;8008;50.024;8.172;2023-08-30T09:32:40;7.20;;;5.57;;
15814;SDS011;8008;50.024;8.172;2023-08-30T09:35:09;7.85;;;5.55;;
15814;SDS011;8008;50.024;8.172;2023-08-30T09:37:37;5.57;;;5.05;;
15814;SDS011;8008;50.024;8.172;2023-08-30T09:40:07;6.40;;;5.35;;
15814;SDS011;8008;50.024;8.172;2023-08-30T09:42:40;6.18;;;5.55;;
15814;SDS011;8008;50.024;8.172;2023-08-30T09:45:17;6.57;;;5.10;;
15814;SDS011;8008;50.024;8.172;2023-08-30T09:47:46;5.47;;;4.97;;
15814;SDS011;8008;50.024;8.172;2023-08-30T09:50:16;6.47;;;5.68;;
15814;SDS011;8008;50.024;8.172;2023-08-30T09:52:46;7.28;;;6.28;;
15814;SDS011;8008;50.024;8.172;2023-08-30T09:55:18;5.95;;;5.40;;
15814;SDS011;8008;50.024;8.172;2023-08-30T09:57:46;5.68;;;5.18;;
15814;SDS011;8008;50.024;8.172;2023-08-30T10:00:16;6.88;;;5.07;;
15814;SDS011;8008;50.024;8.172;2023-08-30T10:02:44;4.90;;;4.20;;
15814;SDS011;8008;50.024;8.172;2023-08-30T10:05:33;4.93;;;4.43;;
15814;SDS011;8008;50.024;8.172;2023-08-30T10:08:02;4.47;;;4.07;;
15814;SDS011;8008;50.024;8.172;2023-08-30T10:10:35;4.30;;;3.90;;
15814;SDS011;8008;50.024;8.172;2023-08-30T10:13:05;5.70;;;4.10;;
15814;SDS011;8008;50.024;8.172;2023-08-30T10:15:38;4.20;;;3.83;;
15814;SDS011;8008;50.024;8.172;2023-08-30T10:18:08;6.43;;;4.80;;
15814;SDS011;8008;50.024;8.172;2023-08-30T10:20:38;5.50;;;5.00;;
15814;SDS011;8008;50.024;8.172;2023-08-30T10:23:07;6.30;;;5.32;;
15814;SDS011;8008;50.024;8.172;2023-08-30T10:25:39;5.47;;;4.85;;
15814;SDS011;8008;50.024;8.172;2023-08-30T10:28:08;5.85;;;4.70;;
15814;SDS011;8008;50.024;8.172;2023-08-30T10:30:38;5.15;;;4.20;;
15814;SDS011;8008;50.024;8.172;2023-08-30T10:33:11;7.22;;;4.80;;
15814;SDS011;8008;50.024;8.172;2023-08-30T10:35:46;4.60;;;4.20;;
15814;SDS011;8008;50.024;8.172;2023-08-30T10:38:24;5.30;;;4.32;;
15814;SDS011;8008;50.024;8.172;2023-08-30T10:40:54;4.55;;;4.10;;
15814;SDS011;8008;50.024;8.172;2023-08-30T10:43:28;5.22;;;4.22;;
15814;SDS011;8008;50.024;8.172;2023-08-30T10:46:01;5.43;;;4.07;;
15814;SDS011;8008;50.024;8.172;2023-08-30T10:48:36;5.88;;;3.97;;
15814;SDS011;8008;50.024;8.172;2023-08-30T10:51:06;5.97;;;4.15;;
15814;SDS011;8008;50.024;8.172;2023-08-30T10:53:56;3.92;;;3.47;;
15814;SDS011;8008;50.024;8.172;2023-08-30T10:56:30;3.63;;;3.33;;
15814;SDS011;8008;50.024;8.172;2023-08-30T10:59:01;4.40;;;3.30;;
15814;SDS011;8008;50.024;8.172;2023-08-30T11:01:29;7.40;;;3.05;;
15814;SDS011;8008;50.024;8.172;2023-08-30T11:03:57;4.93;;;3.53;;
15814;SDS011;8008;50.024;8.172;2023-08-30T11:06:40;3.83;;;3.42;;
15814;SDS011;8008;50.024;8.172;2023-08-30T11:09:09;3.50;;;3.03;;
15814;SDS011;8008;50.024;8.172;2023-08-30T11:11:40;4.40;;;3.20;;
15814;SDS011;8008;50.024;8.172;2023-08-30T11:14:08;3.08;;;2.78;;
15814;SDS011;8008;50.024;8.172;2023-08-30T11:16:37;3.03;;;2.70;;
15814;SDS011;8008;50.024;8.172;2023-08-30T11:19:06;2.90;;;2.67;;
15814;SDS011;8008;50.024;8.172;2023-08-30T11:21:35;3.08;;;2.75;;
15814;SDS011;8008;50.024;8.172;2023-08-30T11:24:04;3.25;;;2.95;;
15814;SDS011;8008;50.024;8.172;2023-08-30T11:26:33;3.20;;;2.83;;
15814;SDS011;8008;50.024;8.172;2023-08-30T11:29:06;5.43;;;3.35;;
15814;SDS011;8008;50.024;8.172;2023-08-30T11:31:35;4.32;;;3.25;;
15814;SDS011;8008;50.024;8.172;2023-08-30T11:34:03;5.07;;;3.42;;
15814;SDS011;8008;50.024;8.172;2023-08-30T11:36:31;4.57;;;3.67;;
15814;SDS011;8008;50.024;8.172;2023-08-30T11:39:02;4.28;;;3.88;;
15814;SDS011;8008;50.024;8.172;2023-08-30T11:41:30;7.72;;;3.55;;
15814;SDS011;8008;50.024;8.172;2023-08-30T11:43:59;5.18;;;3.92;;
15814;SDS011;8008;50.024;8.172;2023-08-30T11:46:29;5.20;;;4.20;;
15814;SDS011;8008;50.024;8.172;2023-08-30T11:48:58;3.97;;;3.60;;
15814;SDS011;8008;50.024;8.172;2023-08-30T11:51:26;7.13;;;4.10;;
15814;SDS011;8008;50.024;8.172;2023-08-30T11:53:54;5.90;;;4.68;;
15814;SDS011;8008;50.024;8.172;2023-08-30T11:56:23;5.10;;;4.47;;
15814;SDS011;8008;50.024;8.172;2023-08-30T11:58:51;5.45;;;4.93;;
15814;SDS011;8008;50.024;8.172;2023-08-30T12:01:19;5.22;;;4.70;;
15814;SDS011;8008;50.024;8.172;2023-08-30T12:03:49;7.25;;;5.25;;
15814;SDS011;8008;50.024;8.172;2023-08-30T12:06:17;7.68;;;4.93;;
15814;SDS011;8008;50.024;8.172;2023-08-30T12:08:45;5.60;;;4.82;;
15814;SDS011;8008;50.024;8.172;2023-08-30T12:11:19;7.47;;;5.43;;
15814;SDS011;8008;50.024;8.172;2023-08-30T12:13:47;7.35;;;4.90;;
15814;SDS011;8008;50.024;8.172;2023-08-30T12:16:17;6.55;;;4.30;;
15814;SDS011;8008;50.024;8.172;2023-08-30T12:18:46;3.80;;;3.50;;
15814;SDS011;8008;50.024;8.172;2023-08-30T12:21:16;6.22;;;3.88;;
15814;SDS011;8008;50.024;8.172;2023-08-30T12:23:44;4.38;;;3.30;;
15814;SDS011;8008;50.024;8.172;2023-08-30T12:26:12;4.05;;;3.65;;
15814;SDS011;8008;50.024;8.172;2023-08-30T12:28:40;3.55;;;3.20;;
15814;SDS011;8008;50.024;8.172;2023-08-30T12:31:11;3.70;;;3.40;;
15814;SDS011;8008;50.024;8.172;2023-08-30T12:33:39;3.50;;;3.20;;
15814;SDS011;8008;50.024;8.172;2023-08-30T12:36:07;3.40;;;3.10;;
15814;SDS011;8008;50.024;8.172;2023-08-30T12:38:36;4.53;;;3.30;;
15814;SDS011;8008;50.024;8.172;2023-08-30T12:41:04;3.47;;;3.15;;
15814;SDS011;8008;50.024;8.172;2023-08-30T12:43:32;4.93;;;3.00;;
15814;SDS011;8008;50.024;8.172;2023-08-30T12:46:00;3.17;;;2.80;;
15814;SDS011;8008;50.024;8.172;2023-08-30T12:48:28;3.50;;;2.92;;
15814;SDS011;8008;50.024;8.172;2023-08-30T12:50:56;3.65;;;3.17;;
15814;SDS011;8008;50.024;8.172;2023-08-30T12:53:24;3.30;;;2.95;;
15814;SDS011;8008;50.024;8.172;2023-08-30T12:55:53;4.57;;;3.15;;
15814;SDS011;8008;50.024;8.172;2023-08-30T12:58:21;3.80;;;3.20;;
15814;SDS011;8008;50.024;8.172;2023-08-30T13:00:49;4.20;;;3.30;;
15814;SDS011;8008;50.024;8.172;2023-08-30T13:03:17;5.32;;;3.47;;
15814;SDS011;8008;50.024;8.172;2023-08-30T13:05:45;5.80;;;3.72;;
15814;SDS011;8008;50.024;8.172;2023-08-30T13:08:13;4.70;;;3.58;;
15814;SDS011;8008;50.024;8.172;2023-08-30T13:10:41;4.78;;;3.70;;
15814;SDS011;8008;50.024;8.172;2023-08-30T13:13:11;4.40;;;3.80;;
15814;SDS011;8008;50.024;8.172;2023-08-30T13:15:39;7.18;;;3.50;;
15814;SDS011;8008;50.024;8.172;2023-08-30T13:18:07;6.00;;;4.20;;
15814;SDS011;8008;50.024;8.172;2023-08-30T13:20:37;4.82;;;3.92;;
15814;SDS011;8008;50.024;8.172;2023-08-30T13:23:06;5.57;;;3.70;;
15814;SDS011;8008;50.024;8.172;2023-08-30T13:25:34;7.00;;;3.97;;
15814;SDS011;8008;50.024;8.172;2023-08-30T13:28:06;4.05;;;3.65;;
15814;SDS011;8008;50.024;8.172;2023-08-30T13:30:36;4.47;;;3.70;;
15814;SDS011;8008;50.024;8.172;2023-08-30T13:33:04;4.55;;;3.80;;
15814;SDS011;8008;50.024;8.172;2023-08-30T13:35:32;4.75;;;4.10;;
15814;SDS011;8008;50.024;8.172;2023-08-30T13:38:00;4.55;;;4.00;;
15814;SDS011;8008;50.024;8.172;2023-08-30T13:40:27;5.25;;;3.72;;
15814;SDS011;8008;50.024;8.172;2023-08-30T13:42:56;5.80;;;4.10;;
15814;SDS011;8008;50.024;8.172;2023-08-30T13:45:23;4.97;;;3.88;;
15814;SDS011;8008;50.024;8.172;2023-08-30T13:47:53;4.53;;;3.92;;
15814;SDS011;8008;50.024;8.172;2023-08-30T13:50:21;4.60;;;4.10;;
15814;SDS011;8008;50.024;8.172;2023-08-30T13:52:49;7.38;;;4.22;;
15814;SDS011;8008;50.024;8.172;2023-08-30T13:55:17;5.18;;;4.15;;
15814;SDS011;8008;50.024;8.172;2023-08-30T13:57:45;4.53;;;3.78;;
15814;SDS011;8008;50.024;8.172;2023-08-30T14:00:13;6.55;;;4.20;;
15814;SDS011;8008;50.024;8.172;2023-08-30T14:02:42;5.82;;;3.80;;
15814;SDS011;8008;50.024;8.172;2023-08-30T14:05:11;5.63;;;4.53;;
15814;SDS011;8008;50.024;8.172;2023-08-30T14:07:39;4.40;;;3.88;;
15814;SDS011;8008;50.024;8.172;2023-08-30T14:10:07;6.18;;;4.07;;
15814;SDS011;8008;50.024;8.172;2023-08-30T14:12:35;4.68;;;3.80;;
15814;SDS011;8008;50.024;8.172;2023-08-30T14:15:03;4.82;;;4.15;;
15814;SDS011;8008;50.024;8.172;2023-08-30T14:17:32;4.90;;;3.65;;
15814;SDS011;8008;50.024;8.172;2023-08-30T14:20:00;6.20;;;4.10;;
15814;SDS011;8008;50.024;8.172;2023-08-30T14:22:30;4.85;;;3.80;;
15814;SDS011;8008;50.024;8.172;2023-08-30T14:24:58;4.18;;;3.78;;
15814;SDS011;8008;50.024;8.172;2023-08-30T14:27:37;4.72;;;3.33;;
15814;SDS011;8008;50.024;8.172;2023-08-30T14:30:06;4.35;;;3.42;;
15814;SDS011;8008;50.024;8.172;2023-08-30T14:32:34;4.43;;;3.70;;
15814;SDS011;8008;50.024;8.172;2023-08-30T14:35:02;4.43;;;3.38;;
15814;SDS011;8008;50.024;8.172;2023-08-30T14:37:32;7.13;;;3.47;;
15814;SDS011;8008;50.024;8.172;2023-08-30T14:40:02;3.85;;;3.30;;
15814;SDS011;8008;50.024;8.172;2023-08-30T14:42:30;3.50;;;3.20;;
15814;SDS011;8008;50.024;8.172;2023-08-30T14:44:59;4.32;;;3.35;;
15814;SDS011;8008;50.024;8.172;2023-08-30T14:47:29;5.65;;;3.35;;
15814;SDS011;8008;50.024;8.172;2023-08-30T14:49:57;5.35;;;3.67;;
15814;SDS011;8008;50.024;8.172;2023-08-30T14:52:27;5.95;;;3.38;;
15814;SDS011;8008;50.024;8.172;2023-08-30T14:54:56;3.35;;;3.05;;
15814;SDS011;8008;50.024;8.172;2023-08-30T14:57:24;3.25;;;2.95;;
15814;SDS011;8008;50.024;8.172;2023-08-30T14:59:52;3.50;;;3.20;;
15814;SDS011;8008;50.024;8.172;2023-08-30T15:02:21;4.78;;;3.20;;
15814;SDS011;8008;50.024;8.172;2023-08-30T15:04:49;7.07;;;3.28;;
15814;SDS011;8008;50.024;8.172;2023-08-30T15:07:17;4.30;;;3.33;;
15814;SDS011;8008;50.024;8.172;2023-08-30T15:09:45;6.10;;;3.55;;
15814;SDS011;8008;50.024;8.172;2023-08-30T15:12:14;3.55;;;2.85;;
15814;SDS011;8008;50.024;8.172;2023-08-30T15:14:42;3.40;;;3.10;;
15814;SDS011;8008;50.024;8.172;2023-08-30T15:17:10;4.00;;;3.03;;
15814;SDS011;8008;50.024;8.172;2023-08-30T15:19:39;3.38;;;2.90;;
15814;SDS011;8008;50.024;8.172;2023-08-30T15:22:07;3.35;;;3.00;;
15814;SDS011;8008;50.024;8.172;2023-08-30T15:24:35;3.15;;;2.85;;
15814;SDS011;8008;50.024;8.172;2023-08-30T15:27:04;3.80;;;3.08;;
15814;SDS011;8008;50.024;8.172;2023-08-30T15:29:33;3.08;;;2.80;;
15814;SDS011;8008;50.024;8.172;2023-08-30T15:32:01;3.70;;;2.80;;
15814;SDS011;8008;50.024;8.172;2023-08-30T15:34:29;3.72;;;2.90;;
15814;SDS011;8008;50.024;8.172;2023-08-30T15:36:57;6.07;;;2.80;;
15814;SDS011;8008;50.024;8.172;2023-08-30T15:39:25;3.30;;;3.00;;
15814;SDS011;8008;50.024;8.172;2023-08-30T15:41:53;3.38;;;2.90;;
15814;SDS011;8008;50.024;8.172;2023-08-30T15:44:21;6.20;;;3.38;;
15814;SDS011;8008;50.024;8.172;2023-08-30T15:46:50;7.70;;;3.15;;
15814;SDS011;8008;50.024;8.172;2023-08-30T15:49:18;4.72;;;3.60;;
15814;SDS011;8008;50.024;8.172;2023-08-30T15:51:46;4.18;;;2.83;;
15814;SDS011;8008;50.024;8.172;2023-08-30T15:54:14;7.15;;;2.88;;
15814;SDS011;8008;50.024;8.172;2023-08-30T15:56:42;3.45;;;2.63;;
15814;SDS011;8008;50.024;8.172;2023-08-30T15:59:11;3.45;;;2.60;;
15814;SDS011;8008;50.024;8.172;2023-08-30T16:01:40;3.03;;;2.70;;
15814;SDS011;8008;50.024;8.172;2023-08-30T16:04:09;2.65;;;2.45;;
15814;SDS011;8008;50.024;8.172;2023-08-30T16:06:37;2.50;;;2.30;;
15814;SDS011;8008;50.024;8.172;2023-08-30T16:09:05;4.65;;;2.65;;
15814;SDS011;8008;50.024;8.172;2023-08-30T16:11:33;2.72;;;2.40;;
15814;SDS011;8008;50.024;8.172;2023-08-30T16:14:01;3.10;;;2.80;;
15814;SDS011;8008;50.024;8.172;2023-08-30T16:16:29;2.75;;;2.15;;
15814;SDS011;8008;50.024;8.172;2023-08-30T16:18:57;2.30;;;2.10;;
15814;SDS011;8008;50.024;8.172;2023-08-30T16:21:27;3.13;;;1.80;;
15814;SDS011;8008;50.024;8.172;2023-08-30T16:23:56;5.65;;;1.85;;
15814;SDS011;8008;50.024;8.172;2023-08-30T16:26:24;3.35;;;1.83;;
15814;SDS011;8008;50.024;8.172;2023-08-30T16:28:51;2.95;;;2.10;;
15814;SDS011;8008;50.024;8.172;2023-08-30T16:31:19;4.20;;;2.08;;
15814;SDS011;8008;50.024;8.172;2023-08-30T16:33:51;2.88;;;1.85;;
15814;SDS011;8008;50.024;8.172;2023-08-30T16:36:19;2.08;;;1.88;;
15814;SDS011;8008;50.024;8.172;2023-08-30T16:38:48;1.83;;;1.73;;
15814;SDS011;8008;50.024;8.172;2023-08-30T16:41:16;3.00;;;2.00;;
15814;SDS011;8008;50.024;8.172;2023-08-30T16:43:44;3.35;;;1.63;;
15814;SDS011;8008;50.024;8.172;2023-08-30T16:46:12;5.82;;;1.90;;
15814;SDS011;8008;50.024;8.172;2023-08-30T16:48:40;3.15;;;1.90;;
15814;SDS011;8008;50.024;8.172;2023-08-30T16:51:07;4.35;;;1.90;;
15814;SDS011;8008;50.024;8.172;2023-08-30T16:53:35;2.15;;;1.58;;
15814;SDS011;8008;50.024;8.172;2023-08-30T16:56:05;1.80;;;1.70;;
15814;SDS011;8008;50.024;8.172;2023-08-30T16:58:33;2.42;;;2.03;;
15814;SDS011;8008;50.024;8.172;2023-08-30T17:01:07;2.45;;;1.75;;
15814;SDS011;8008;50.024;8.172;2023-08-30T17:03:35;2.15;;;1.90;;
15814;SDS011;8008;50.024;8.172;2023-08-30T17:06:03;1.85;;;1.75;;
15814;SDS011;8008;50.024;8.172;2023-08-30T17:08:32;1.80;;;1.42;;
15814;SDS011;8008;50.024;8.172;2023-08-30T17:11:01;2.13;;;1.50;;
15814;SDS011;8008;50.024;8.172;2023-08-30T17:13:32;1.73;;;1.60;;
15814;SDS011;8008;50.024;8.172;2023-08-30T17:16:00;1.40;;;1.30;;
15814;SDS011;8008;50.024;8.172;2023-08-30T17:18:29;1.55;;;1.33;;
15814;SDS011;8008;50.024;8.172;2023-08-30T17:20:58;1.58;;;1.40;;
15814;SDS011;8008;50.024;8.172;2023-08-30T17:23:26;1.60;;;1.50;;
15814;SDS011;8008;50.024;8.172;2023-08-30T17:25:53;1.70;;;1.60;;
15814;SDS011;8008;50.024;8.172;2023-08-30T17:28:21;1.83;;;1.58;;
15814;SDS011;8008;50.024;8.172;2023-08-30T17:30:51;2.15;;;1.42;;
15814;SDS011;8008;50.024;8.172;2023-08-30T17:33:18;1.65;;;1.52;;
15814;SDS011;8008;50.024;8.172;2023-08-30T17:35:46;2.25;;;1.40;;
15814;SDS011;8008;50.024;8.172;2023-08-30T17:38:14;2.05;;;1.65;;
15814;SDS011;8008;50.024;8.172;2023-08-30T17:40:42;1.73;;;1.60;;
15814;SDS011;8008;50.024;8.172;2023-08-30T17:43:10;1.65;;;1.55;;
15814;SDS011;8008;50.024;8.172;2023-08-30T17:45:38;1.98;;;1.60;;
15814;SDS011;8008;50.024;8.172;2023-08-30T17:48:09;1.55;;;1.40;;
15814;SDS011;8008;50.024;8.172;2023-08-30T17:50:40;1.50;;;1.40;;
15814;SDS011;8008;50.024;8.172;2023-08-30T17:53:09;1.70;;;1.55;;
15814;SDS011;8008;50.024;8.172;2023-08-30T17:55:39;2.72;;;1.60;;
15814;SDS011;8008;50.024;8.172;2023-08-30T17:58:07;2.08;;;1.55;;
15814;SDS011;8008;50.024;8.172;2023-08-30T18:00:35;1.92;;;1.83;;
15814;SDS011;8008;50.024;8.172;2023-08-30T18:03:03;3.47;;;1.70;;
15814;SDS011;8008;50.024;8.172;2023-08-30T18:05:33;2.45;;;1.60;;
15814;SDS011;8008;50.024;8.172;2023-08-30T18:08:00;3.00;;;1.58;;
15814;SDS011;8008;50.024;8.172;2023-08-30T18:10:30;3.15;;;1.90;;
15814;SDS011;8008;50.024;8.172;2023-08-30T18:12:57;2.75;;;1.88;;